Time,TemperatureF,DewpointF,PressureIn,WindDirection,WindDirectionDegrees,WindSpeedMPH,WindSpeedGustMPH,Humidity,HourlyPrecipIn,Conditions,Clouds,dailyrainin,SolarRadiationWatts/m^2,SoftwareType,DateUTC
2013-05-19 00:01:00,39.0,33.0,-100.00,WNW,293,2.0,9.0,78,0.00,,,0.03,0.000000,,2013-05-19 07:01:00,
2013-05-19 00:11:00,39.0,33.0,-100.00,WNW,293,2.0,9.0,78,0.00,,,0.03,0.000000,,2013-05-19 07:11:00,
2013-05-19 00:21:00,39.0,33.0,-100.00,WNW,293,2.0,9.0,78,0.00,,,0.03,0.000000,,2013-05-19 07:21:00,
2013-05-19 00:52:00,37.0,31.0,-100.00,WNW,290,0.0,10.0,79,0.00,,,0.03,0.000000,,2013-05-19 07:52:00,
2013-05-19 01:01:00,37.0,31.0,-100.00,WNW,290,0.0,10.0,79,0.00,,,0.03,0.000000,,2013-05-19 08:01:00,
2013-05-19 01:12:00,37.0,31.0,-100.00,WNW,290,0.0,10.0,79,0.00,,,0.03,0.000000,,2013-05-19 08:12:00,
2013-05-19 01:21:00,37.0,31.0,-100.00,WNW,290,0.0,10.0,79,0.00,,,0.03,0.000000,,2013-05-19 08:21:00,
2013-05-19 01:52:00,38.0,33.0,-100.00,WNW,293,0.0,6.0,83,0.00,,,-99.99,0.000000,,2013-05-19 08:52:00,
2013-05-19 02:02:00,38.0,33.0,-100.00,WNW,293,0.0,6.0,83,0.00,,,-99.99,0.000000,,2013-05-19 09:02:00,
2013-05-19 02:11:00,38.0,33.0,-100.00,WNW,293,0.0,6.0,83,0.00,,,-99.99,0.000000,,2013-05-19 09:11:00,
2013-05-19 02:21:00,38.0,33.0,-100.00,WNW,293,0.0,6.0,83,0.00,,,-99.99,0.000000,,2013-05-19 09:21:00,
2013-05-19 02:53:00,36.0,31.0,-100.00,WNW,291,2.0,8.0,83,0.00,,,0.03,0.000000,,2013-05-19 09:53:00,
2013-05-19 03:02:00,36.0,31.0,-100.00,WNW,291,2.0,8.0,83,0.00,,,0.03,0.000000,,2013-05-19 10:02:00,
2013-05-19 03:12:00,36.0,31.0,-100.00,WNW,291,2.0,8.0,83,0.00,,,0.03,0.000000,,2013-05-19 10:12:00,
2013-05-19 03:22:00,36.0,31.0,-100.00,WNW,291,2.0,8.0,83,0.00,,,0.03,0.000000,,2013-05-19 10:22:00,
2013-05-19 03:52:00,36.0,32.0,-100.00,WNW,298,1.0,11.0,84,0.00,,,0.03,0.000000,,2013-05-19 10:52:00,
2013-05-19 04:02:00,36.0,32.0,-100.00,WNW,298,1.0,11.0,84,0.00,,,0.03,0.000000,,2013-05-19 11:02:00,
2013-05-19 04:11:00,36.0,32.0,-100.00,WNW,298,1.0,11.0,84,0.00,,,0.03,0.000000,,2013-05-19 11:11:00,
2013-05-19 04:21:00,36.0,32.0,-100.00,WNW,298,1.0,11.0,84,0.00,,,0.03,0.000000,,2013-05-19 11:21:00,
2013-05-19 04:52:00,36.0,32.0,-100.00,WNW,294,0.0,9.0,84,0.00,,,0.03,0.000000,,2013-05-19 11:52:00,
2013-05-19 05:01:00,36.0,32.0,-100.00,WNW,294,0.0,9.0,84,0.00,,,0.03,0.000000,,2013-05-19 12:01:00,
2013-05-19 05:11:00,36.0,32.0,-100.00,WNW,294,0.0,9.0,84,0.00,,,0.03,0.000000,,2013-05-19 12:11:00,
2013-05-19 05:21:00,36.0,32.0,-100.00,WNW,294,0.0,9.0,84,0.00,,,0.03,0.000000,,2013-05-19 12:21:00,
2013-05-19 05:52:00,37.0,32.0,-100.00,WNW,298,0.0,7.0,83,0.00,,,0.03,0.000000,,2013-05-19 12:52:00,
2013-05-19 06:01:00,37.0,32.0,-100.00,WNW,298,0.0,7.0,83,0.00,,,0.03,0.000000,,2013-05-19 13:01:00,
2013-05-19 06:11:00,37.0,32.0,-100.00,WNW,298,0.0,7.0,83,0.00,,,0.03,0.000000,,2013-05-19 13:11:00,
2013-05-19 06:21:00,37.0,32.0,-100.00,WNW,298,0.0,7.0,83,0.00,,,0.03,0.000000,,2013-05-19 13:21:00,
2013-05-19 06:52:00,38.0,33.0,-100.00,WNW,289,0.0,5.0,83,0.00,,,-99.99,31.000000,,2013-05-19 13:52:00,
2013-05-19 07:02:00,38.0,33.0,-100.00,WNW,289,0.0,5.0,83,0.00,,,-99.99,31.000000,,2013-05-19 14:02:00,
2013-05-19 07:11:00,38.0,33.0,-100.00,WNW,289,0.0,5.0,83,0.00,,,-99.99,31.000000,,2013-05-19 14:11:00,
2013-05-19 07:21:00,38.0,33.0,-100.00,WNW,289,0.0,5.0,83,0.00,,,-99.99,31.000000,,2013-05-19 14:21:00,
2013-05-19 07:52:00,37.0,32.0,-100.00,WNW,290,0.0,7.0,81,0.00,,,0.03,85.000000,,2013-05-19 14:52:00,
2013-05-19 08:01:00,37.0,32.0,-100.00,WNW,290,0.0,7.0,81,0.00,,,0.03,85.000000,,2013-05-19 15:01:00,
2013-05-19 08:11:00,37.0,32.0,-100.00,WNW,290,0.0,7.0,81,0.00,,,0.03,85.000000,,2013-05-19 15:11:00,
2013-05-19 08:21:00,37.0,32.0,-100.00,WNW,290,0.0,7.0,81,0.00,,,0.03,85.000000,,2013-05-19 15:21:00,
2013-05-19 08:53:00,41.0,34.0,-100.00,West,281,0.0,5.0,75,0.00,,,0.02,194.000000,,2013-05-19 15:53:00,
2013-05-19 09:03:00,41.0,34.0,-100.00,West,281,0.0,5.0,75,0.00,,,0.02,194.000000,,2013-05-19 16:03:00,
2013-05-19 09:12:00,41.0,34.0,-100.00,West,281,0.0,5.0,75,0.00,,,0.02,194.000000,,2013-05-19 16:12:00,
2013-05-19 09:23:00,41.0,34.0,-100.00,West,281,0.0,5.0,75,0.00,,,0.02,194.000000,,2013-05-19 16:23:00,
2013-05-19 09:52:00,42.0,31.0,-100.00,WNW,288,1.0,9.0,65,0.00,,,0.02,391.000000,,2013-05-19 16:52:00,
2013-05-19 10:02:00,42.0,31.0,-100.00,WNW,288,1.0,9.0,65,0.00,,,0.02,391.000000,,2013-05-19 17:02:00,
2013-05-19 10:12:00,42.0,31.0,-100.00,WNW,288,1.0,9.0,65,0.00,,,0.02,391.000000,,2013-05-19 17:12:00,
2013-05-19 10:22:00,42.0,31.0,-100.00,WNW,288,1.0,9.0,65,0.00,,,0.02,391.000000,,2013-05-19 17:22:00,
2013-05-19 10:52:00,45.0,33.0,-100.00,WNW,291,0.0,7.0,63,0.00,,,0.02,309.000000,,2013-05-19 17:52:00,
2013-05-19 11:02:00,45.0,33.0,-100.00,WNW,291,0.0,7.0,63,0.00,,,0.02,309.000000,,2013-05-19 18:02:00,
2013-05-19 11:12:00,45.0,33.0,-100.00,WNW,291,0.0,7.0,63,0.00,,,0.02,309.000000,,2013-05-19 18:12:00,
2013-05-19 11:21:00,45.0,33.0,-100.00,WNW,291,0.0,7.0,63,0.00,,,0.02,309.000000,,2013-05-19 18:21:00,
2013-05-19 11:53:00,45.0,36.0,-100.00,WNW,288,0.0,6.0,71,0.00,,,0.02,218.000000,,2013-05-19 18:53:00,
2013-05-19 12:01:00,45.0,36.0,-100.00,WNW,288,0.0,6.0,71,0.00,,,0.02,218.000000,,2013-05-19 19:01:00,
2013-05-19 12:11:00,45.0,36.0,-100.00,WNW,288,0.0,6.0,71,0.00,,,0.02,218.000000,,2013-05-19 19:11:00,
2013-05-19 12:21:00,45.0,36.0,-100.00,WNW,288,0.0,6.0,71,0.00,,,0.02,218.000000,,2013-05-19 19:21:00,
2013-05-19 12:52:00,45.0,38.0,-100.00,East,94,0.0,4.0,76,0.04,,,0.06,378.000000,,2013-05-19 19:52:00,
2013-05-19 13:02:00,45.0,38.0,-100.00,East,94,0.0,4.0,76,0.04,,,0.06,378.000000,,2013-05-19 20:02:00,
2013-05-19 13:11:00,45.0,38.0,-100.00,East,94,0.0,4.0,76,0.04,,,0.06,378.000000,,2013-05-19 20:11:00,
2013-05-19 13:21:00,45.0,38.0,-100.00,East,94,0.0,4.0,76,0.04,,,0.06,378.000000,,2013-05-19 20:21:00,
2013-05-19 13:52:00,45.0,36.0,-100.00,North,7,0.0,6.0,71,0.01,,,0.07,443.000000,,2013-05-19 20:52:00,
2013-05-19 14:02:00,45.0,36.0,-100.00,North,7,0.0,6.0,71,0.01,,,0.07,443.000000,,2013-05-19 21:02:00,
2013-05-19 14:11:00,45.0,36.0,-100.00,North,7,0.0,6.0,71,0.01,,,0.07,443.000000,,2013-05-19 21:11:00,
2013-05-19 14:22:00,45.0,36.0,-100.00,North,7,0.0,6.0,71,0.01,,,0.07,443.000000,,2013-05-19 21:22:00,
2013-05-19 14:53:00,46.0,38.0,-100.00,SSW,194,0.0,6.0,74,0.02,,,0.09,519.000000,,2013-05-19 21:53:00,
2013-05-19 15:02:00,46.0,38.0,-100.00,SSW,194,0.0,6.0,74,0.02,,,0.09,519.000000,,2013-05-19 22:02:00,
2013-05-19 15:12:00,46.0,38.0,-100.00,SSW,194,0.0,6.0,74,0.02,,,0.09,519.000000,,2013-05-19 22:12:00,
2013-05-19 15:23:00,46.0,38.0,-100.00,SSW,194,0.0,6.0,74,0.02,,,0.09,519.000000,,2013-05-19 22:23:00,
2013-05-19 15:53:00,45.0,38.0,-100.00,NW,304,0.0,10.0,75,0.03,,,0.12,533.000000,,2013-05-19 22:53:00,
2013-05-19 16:02:00,45.0,38.0,-100.00,NW,304,0.0,10.0,75,0.03,,,0.12,533.000000,,2013-05-19 23:02:00,
2013-05-19 16:11:00,45.0,38.0,-100.00,NW,304,0.0,10.0,75,0.03,,,0.12,533.000000,,2013-05-19 23:11:00,
2013-05-19 16:21:00,45.0,38.0,-100.00,NW,304,0.0,10.0,75,0.03,,,0.12,533.000000,,2013-05-19 23:21:00,
2013-05-19 16:52:00,46.0,36.0,-100.00,NW,325,0.0,8.0,69,0.01,,,0.12,264.000000,,2013-05-19 23:52:00,
2013-05-19 17:02:00,46.0,36.0,-100.00,NW,325,0.0,8.0,69,0.01,,,0.12,264.000000,,2013-05-20 00:02:00,
2013-05-19 17:11:00,46.0,36.0,-100.00,NW,325,0.0,8.0,69,0.01,,,0.12,264.000000,,2013-05-20 00:11:00,
2013-05-19 17:21:00,46.0,36.0,-100.00,NW,325,0.0,8.0,69,0.01,,,0.12,264.000000,,2013-05-20 00:21:00,
2013-05-19 17:52:00,44.0,38.0,-100.00,East,89,0.0,4.0,80,0.01,,,0.12,108.000000,,2013-05-20 00:52:00,
2013-05-19 18:01:00,44.0,38.0,-100.00,East,89,0.0,4.0,80,0.01,,,0.12,108.000000,,2013-05-20 01:01:00,
2013-05-19 18:11:00,44.0,38.0,-100.00,East,89,0.0,4.0,80,0.01,,,0.12,108.000000,,2013-05-20 01:11:00,
2013-05-19 18:21:00,44.0,38.0,-100.00,East,89,0.0,4.0,80,0.01,,,0.12,108.000000,,2013-05-20 01:21:00,
2013-05-19 18:52:00,46.0,39.0,-100.00,SE,136,0.0,4.0,75,0.00,,,-99.99,111.000000,,2013-05-20 01:52:00,
2013-05-19 19:02:00,46.0,39.0,-100.00,SE,136,0.0,4.0,75,0.00,,,-99.99,111.000000,,2013-05-20 02:02:00,
2013-05-19 19:11:00,46.0,39.0,-100.00,SE,136,0.0,4.0,75,0.00,,,-99.99,111.000000,,2013-05-20 02:11:00,
2013-05-19 19:21:00,46.0,39.0,-100.00,SE,136,0.0,4.0,75,0.00,,,-99.99,111.000000,,2013-05-20 02:21:00,
2013-05-19 19:52:00,44.0,37.0,-100.00,West,281,0.0,3.0,75,0.00,,,0.12,95.000000,,2013-05-20 02:52:00,
2013-05-19 20:01:00,44.0,37.0,-100.00,West,281,0.0,3.0,75,0.00,,,0.12,95.000000,,2013-05-20 03:01:00,
2013-05-19 20:11:00,44.0,37.0,-100.00,West,281,0.0,3.0,75,0.00,,,0.12,95.000000,,2013-05-20 03:11:00,
2013-05-19 20:21:00,44.0,37.0,-100.00,West,281,0.0,3.0,75,0.00,,,0.12,95.000000,,2013-05-20 03:21:00,
2013-05-19 20:52:00,44.0,37.0,-100.00,WNW,300,0.0,0.0,77,0.00,,,0.12,15.000000,,2013-05-20 03:52:00,
2013-05-19 21:02:00,44.0,37.0,-100.00,WNW,300,0.0,0.0,77,0.00,,,0.12,15.000000,,2013-05-20 04:02:00,
2013-05-19 21:12:00,44.0,37.0,-100.00,WNW,300,0.0,0.0,77,0.00,,,0.12,15.000000,,2013-05-20 04:12:00,
2013-05-19 21:23:00,44.0,37.0,-100.00,WNW,300,0.0,0.0,77,0.00,,,0.12,15.000000,,2013-05-20 04:23:00,
2013-05-19 21:52:00,43.0,32.0,-100.00,North,5,0.0,3.0,66,0.00,,,0.12,0.000000,,2013-05-20 04:52:00,
2013-05-19 22:02:00,43.0,32.0,-100.00,North,5,0.0,3.0,66,0.00,,,0.12,0.000000,,2013-05-20 05:02:00,
2013-05-19 22:11:00,43.0,32.0,-100.00,North,5,0.0,3.0,66,0.00,,,0.12,0.000000,,2013-05-20 05:11:00,
2013-05-19 22:21:00,43.0,32.0,-100.00,North,5,0.0,3.0,66,0.00,,,0.12,0.000000,,2013-05-20 05:21:00,
2013-05-19 22:52:00,41.0,32.0,-100.00,North,11,0.0,0.0,69,0.00,,,0.12,0.000000,,2013-05-20 05:52:00,
2013-05-19 23:01:00,41.0,32.0,-100.00,North,11,0.0,0.0,69,0.00,,,0.12,0.000000,,2013-05-20 06:01:00,
2013-05-19 23:11:00,41.0,32.0,-100.00,North,11,0.0,0.0,69,0.00,,,0.12,0.000000,,2013-05-20 06:11:00,
2013-05-19 23:21:00,41.0,32.0,-100.00,North,11,0.0,0.0,69,0.00,,,0.12,0.000000,,2013-05-20 06:21:00,
2013-05-19 23:52:00,41.0,36.0,-100.00,East,97,0.0,3.0,81,0.00,,,0.12,0.000000,,2013-05-20 06:52:00,